Time;durP1;ratioP1;P1;durP2;ratioP2;P2;SDS_P1;SDS_P2;PMS_P1;PMS_P2;Temp;Humidity;BMP_temperature;BMP_pressure;BME280_temperature;BME280_humidity;BME280_pressure;Samples;Min_cycle;Max_cycle;Signal;HPM_P1;HPM_P2
2023/05/18 00:02:14;;;;;;;;;7.50;6.00;;;;;15.41;42.20;102028.53;5021855;28;45357;-64
2023/05/18 00:04:39;;;;;;;;;8.00;6.25;;;;;15.38;42.12;102029.44;5020826;28;45435;-64
2023/05/18 00:07:05;;;;;;;;;6.75;5.25;;;;;15.36;41.98;102028.59;5016298;28;48308;-64
2023/05/18 00:09:33;;;;;;;;;8.75;5.25;;;;;15.35;42.24;102018.00;5017293;28;46573;-64
2023/05/18 00:12:00;;;;;;;;;7.50;7.50;;;;;15.36;42.36;102019.78;5019429;28;45625;-64
2023/05/18 00:14:26;;;;;;;;;7.50;5.25;;;;;15.35;41.88;102018.00;5019524;28;45313;-64
2023/05/18 00:16:55;;;;;;;;;9.75;6.00;;;;;15.36;41.89;102019.78;5018510;28;45551;-64
2023/05/18 00:19:22;;;;;;;;;7.25;7.25;;;;;15.33;41.85;102012.72;5019032;28;45564;-64
2023/05/18 00:21:49;;;;;;;;;9.75;8.50;;;;;15.33;42.32;102017.16;5019569;28;45253;-64
2023/05/18 00:24:15;;;;;;;;;7.75;6.00;;;;;15.30;42.12;102010.13;5018231;28;45413;-64
2023/05/18 00:26:42;;;;;;;;;5.50;5.50;;;;;15.27;42.05;102008.41;5019569;28;45471;-64
2023/05/18 00:29:09;;;;;;;;;5.00;5.00;;;;;15.28;41.95;102006.59;5019488;28;45384;-65
2023/05/18 00:31:35;;;;;;;;;8.00;5.50;;;;;15.26;42.61;102009.28;5019638;28;45182;-64
2023/05/18 00:34:04;;;;;;;;;7.50;5.75;;;;;15.22;42.35;102012.00;5019498;28;45246;-65
2023/05/18 00:36:30;;;;;;;;;4.75;4.75;;;;;15.21;42.46;102008.47;5019879;28;45310;-65
2023/05/18 00:38:56;;;;;;;;;8.00;8.00;;;;;15.15;42.10;102005.03;5020331;28;45327;-65
2023/05/18 00:41:22;;;;;;;;;5.50;5.50;;;;;15.15;42.44;102005.91;5023175;28;45423;-64
2023/05/18 00:43:47;;;;;;;;;4.50;4.50;;;;;15.14;42.62;102012.09;5023169;28;45321;-65
2023/05/18 00:46:13;;;;;;;;;5.75;5.75;;;;;15.08;42.12;102002.47;5023188;28;45280;-65
2023/05/18 00:48:38;;;;;;;;;7.00;6.00;;;;;15.11;42.70;102007.72;5022542;28;45350;-64
2023/05/18 00:51:04;;;;;;;;;7.25;5.25;;;;;15.11;42.36;102018.31;5023192;28;45254;-64
2023/05/18 00:53:31;;;;;;;;;5.25;5.25;;;;;15.07;42.71;102010.44;5021551;28;45286;-64
2023/05/18 00:55:57;;;;;;;;;7.75;5.00;;;;;15.07;42.42;102010.44;5022667;28;45416;-64
2023/05/18 00:58:23;;;;;;;;;6.00;5.50;;;;;15.02;42.88;102005.19;5022394;28;46032;-64
2023/05/18 01:00:49;;;;;;;;;9.25;5.25;;;;;15.01;42.92;102016.69;5021640;28;45421;-64
2023/05/18 01:03:14;;;;;;;;;6.25;5.00;;;;;14.98;42.55;102015.84;5022342;28;45427;-64
2023/05/18 01:05:41;;;;;;;;;5.75;4.25;;;;;14.98;42.52;102018.47;5022470;28;45391;-64
2023/05/18 01:08:07;;;;;;;;;5.50;5.00;;;;;14.96;42.86;102023.81;5022611;28;46260;-64
2023/05/18 01:10:36;;;;;;;;;4.00;4.00;;;;;14.95;42.43;102020.28;5022530;28;45411;-64
2023/05/18 01:13:08;;;;;;;;;5.50;5.50;;;;;14.95;42.84;102016.75;5022510;28;45385;-64
2023/05/18 01:15:38;;;;;;;;;6.75;5.50;;;;;14.90;42.84;102015.94;5021480;28;46381;-65
2023/05/18 01:18:20;;;;;;;;;7.00;6.00;;;;;14.87;42.62;102011.56;5022144;28;46164;-64
2023/05/18 01:20:48;;;;;;;;;7.75;6.75;;;;;14.87;42.73;102000.97;5022581;28;45687;-64
2023/05/18 01:23:19;;;;;;;;;6.00;6.00;;;;;14.86;43.03;102001.84;5022462;28;45374;-64
2023/05/18 01:25:53;;;;;;;;;11.00;8.00;;;;;14.85;43.00;102007.19;5022351;28;45272;-64
2023/05/18 01:28:25;;;;;;;;;5.75;5.75;;;;;14.84;43.11;102000.13;5022341;28;45323;-64
2023/05/18 01:30:51;;;;;;;;;4.00;3.75;;;;;14.81;42.94;102000.19;5020582;28;45464;-65
2023/05/18 01:33:17;;;;;;;;;6.25;5.25;;;;;14.80;42.93;102009.88;5022167;28;45345;-65
2023/05/18 01:35:46;;;;;;;;;5.25;5.25;;;;;14.77;42.84;102000.19;5020958;28;45428;-65
2023/05/18 01:38:32;;;;;;;;;5.75;4.50;;;;;14.74;43.32;102000.25;5022313;28;46015;-66
2023/05/18 01:41:23;;;;;;;;;6.25;5.50;;;;;14.75;43.15;102003.75;5021627;28;45221;-65
2023/05/18 01:43:54;;;;;;;;;6.75;5.25;;;;;14.70;43.13;102000.28;5022197;28;45293;-65
2023/05/18 01:46:43;;;;;;;;;4.25;4.25;;;;;14.71;43.53;102002.03;5020850;28;45500;-65
2023/05/18 01:49:23;;;;;;;;;6.00;6.00;;;;;14.68;43.16;102002.06;5021315;28;45360;-65
2023/05/18 01:51:50;;;;;;;;;6.50;6.00;;;;;14.66;42.92;102006.50;5021774;28;45303;-65
2023/05/18 01:54:18;;;;;;;;;7.50;5.00;;;;;14.62;43.18;102001.22;5021886;28;45395;-63
2023/05/18 01:56:45;;;;;;;;;6.00;5.75;;;;;14.63;43.18;102008.25;5021627;28;45412;-64
2023/05/18 01:59:11;;;;;;;;;10.50;6.50;;;;;14.61;43.52;102001.22;5021765;28;45309;-64
2023/05/18 02:01:37;;;;;;;;;5.75;4.75;;;;;14.58;43.54;102004.78;5033207;28;45347;-64
2023/05/18 02:04:07;;;;;;;;;6.00;5.75;;;;;14.58;43.41;102003.94;5020399;28;45341;-64
2023/05/18 02:06:33;;;;;;;;;5.00;4.75;;;;;14.55;42.99;102004.84;5021711;28;45436;-64
2023/05/18 02:08:58;;;;;;;;;8.00;6.50;;;;;14.55;43.48;101994.25;5021697;28;45569;-64
2023/05/18 02:11:23;;;;;;;;;6.00;6.00;;;;;14.54;43.72;102011.00;5020261;28;45505;-64
2023/05/18 02:13:49;;;;;;;;;7.50;6.25;;;;;14.53;43.57;102001.31;5021628;28;45367;-64
2023/05/18 02:16:14;;;;;;;;;8.50;6.25;;;;;14.51;43.44;102003.09;5020260;28;45289;-64
2023/05/18 02:18:39;;;;;;;;;5.50;5.50;;;;;14.46;43.52;102000.53;5021401;28;46003;-64
2023/05/18 02:21:05;;;;;;;;;7.00;7.00;;;;;14.44;43.59;102006.72;5021335;28;45213;-64
2023/05/18 02:23:30;;;;;;;;;7.25;6.25;;;;;14.44;43.34;102012.88;5020200;28;45341;-64
2023/05/18 02:25:55;;;;;;;;;9.00;7.50;;;;;14.40;43.30;101999.69;5019922;28;45507;-64
2023/05/18 02:28:24;;;;;;;;;5.00;5.00;;;;;14.41;43.50;102004.94;5020003;28;47352;-64
2023/05/18 02:30:49;;;;;;;;;7.00;7.00;;;;;14.39;43.37;102008.50;5021240;28;45310;-64
2023/05/18 02:33:16;;;;;;;;;9.00;7.25;;;;;14.38;43.90;102004.13;5019939;28;45230;-64
2023/05/18 02:35:41;;;;;;;;;5.50;5.00;;;;;14.36;43.60;102012.06;5021153;28;45602;-64
2023/05/18 02:38:07;;;;;;;;;6.25;6.25;;;;;14.32;43.33;102012.13;5021281;28;45405;-64
2023/05/18 02:40:32;;;;;;;;;7.00;6.00;;;;;14.32;44.10;102018.28;5020835;28;50031;-64
2023/05/18 02:42:57;;;;;;;;;6.25;5.50;;;;;14.30;43.99;102018.28;5020054;28;45266;-64
2023/05/18 02:45:23;;;;;;;;;5.25;5.00;;;;;14.28;43.81;102016.56;5021234;28;45334;-64
2023/05/18 02:47:48;;;;;;;;;6.00;6.00;;;;;14.25;43.99;102012.19;5019686;28;47057;-64
2023/05/18 02:50:14;;;;;;;;;5.75;5.75;;;;;14.28;43.46;102025.34;5021006;28;45291;-64
2023/05/18 02:52:40;;;;;;;;;6.50;5.50;;;;;14.26;43.99;102020.97;5021161;28;45335;-64
2023/05/18 02:55:06;;;;;;;;;7.75;6.25;;;;;14.21;43.95;102010.44;5020940;28;45375;-64
2023/05/18 02:57:31;;;;;;;;;10.00;7.00;;;;;14.23;44.11;102016.59;5006870;28;45743;-64
2023/05/18 02:59:57;;;;;;;;;8.00;7.00;;;;;14.21;44.08;102018.34;5013462;28;45480;-64
2023/05/18 03:02:23;;;;;;;;;6.00;5.75;;;;;14.21;43.76;102010.44;5017468;28;45773;-64
2023/05/18 03:04:53;;;;;;;;;6.50;6.00;;;;;14.19;43.97;102021.91;5014918;28;45647;-64
2023/05/18 03:07:26;;;;;;;;;7.75;7.75;;;;;14.16;43.98;102012.25;5018021;28;46131;-64
2023/05/18 03:09:51;;;;;;;;;9.00;7.00;;;;;14.14;44.04;102006.97;5017526;28;45395;-64
2023/05/18 03:12:17;;;;;;;;;6.75;5.00;;;;;14.11;44.17;102008.75;5018020;28;45245;-64
2023/05/18 03:14:42;;;;;;;;;7.50;7.00;;;;;14.06;44.04;102003.53;5017386;28;45491;-64
2023/05/18 03:17:07;;;;;;;;;6.50;6.50;;;;;14.08;43.87;102009.66;5017860;28;46562;-64
2023/05/18 03:19:33;;;;;;;;;7.75;6.25;;;;;14.04;44.39;102000.03;5016768;28;45417;-64
2023/05/18 03:21:59;;;;;;;;;10.00;7.25;;;;;14.04;43.81;102001.81;5017707;28;45466;-64
2023/05/18 03:24:25;;;;;;;;;6.00;5.25;;;;;14.02;44.31;102009.72;5017642;28;45430;-64
2023/05/18 03:26:53;;;;;;;;;8.00;7.25;;;;;13.98;44.03;101992.16;5017389;28;45165;-64
2023/05/18 03:29:19;;;;;;;;;12.25;9.00;;;;;13.96;44.03;101994.81;5017593;28;45434;-64
2023/05/18 03:31:44;;;;;;;;;7.25;7.25;;;;;13.95;44.46;101990.41;5017482;28;45533;-64
2023/05/18 03:34:10;;;;;;;;;9.25;9.00;;;;;13.96;44.63;102000.09;5017168;28;45540;-64
2023/05/18 03:36:37;;;;;;;;;10.25;9.50;;;;;13.94;44.11;101998.34;5017806;28;46108;-64
2023/05/18 03:39:03;;;;;;;;;11.00;8.00;;;;;13.91;44.27;102001.91;5017447;28;45481;-64
2023/05/18 03:41:28;;;;;;;;;18.25;13.00;;;;;13.92;44.30;102000.13;5017556;28;45466;-64
2023/05/18 03:43:54;;;;;;;;;16.00;14.00;;;;;13.87;44.24;101984.28;5016926;28;45236;-64
2023/05/18 03:46:19;;;;;;;;;16.75;15.00;;;;;13.86;44.22;101990.50;5017365;28;46172;-64
2023/05/18 03:48:45;;;;;;;;;17.75;15.50;;;;;13.88;44.29;102006.34;5015508;28;45557;-63
2023/05/18 03:51:11;;;;;;;;;17.25;15.00;;;;;13.87;44.61;102005.44;5017600;28;45360;-63
2023/05/18 03:53:36;;;;;;;;;16.25;15.00;;;;;13.79;44.52;101997.56;5016843;28;46547;-64
2023/05/18 03:56:01;;;;;;;;;15.25;14.00;;;;;13.80;44.74;101998.47;5007601;28;47038;-64
2023/05/18 03:58:28;;;;;;;;;14.50;14.00;;;;;13.80;44.31;101995.81;5017186;28;45429;-64
2023/05/18 04:00:53;;;;;;;;;12.50;11.25;;;;;13.79;44.68;102004.63;5017246;28;45570;-64
2023/05/18 04:03:20;;;;;;;;;12.25;10.50;;;;;13.76;44.41;101996.72;5016841;28;45549;-64
2023/05/18 04:05:45;;;;;;;;;12.00;9.00;;;;;13.72;44.52;101995.88;5016933;28;46105;-64
2023/05/18 04:08:13;;;;;;;;;12.25;10.75;;;;;13.59;44.40;101979.22;5016883;28;45449;-64
2023/05/18 04:10:40;;;;;;;;;14.75;10.50;;;;;13.72;44.99;102008.19;5002062;28;45383;-64
2023/05/18 04:13:05;;;;;;;;;8.50;8.25;;;;;13.69;44.94;102006.47;5015658;28;45551;-64
2023/05/18 04:15:32;;;;;;;;;11.00;9.00;;;;;13.69;44.77;102010.88;5015419;28;46746;-64
2023/05/18 04:17:58;;;;;;;;;10.50;10.00;;;;;13.65;44.92;102013.53;5015188;28;45462;-64
2023/05/18 04:20:27;;;;;;;;;9.50;9.25;;;;;13.63;44.50;102017.97;5017112;28;45621;-64
2023/05/18 04:22:52;;;;;;;;;9.00;7.50;;;;;13.63;44.89;102025.00;5016645;28;45616;-64
2023/05/18 04:25:19;;;;;;;;;10.25;10.25;;;;;13.58;44.83;102016.22;5016630;28;45463;-64
2023/05/18 04:27:44;;;;;;;;;11.75;8.75;;;;;13.60;44.59;102017.97;5016627;28;45791;-64
2023/05/18 04:30:10;;;;;;;;;13.50;10.50;;;;;13.60;44.93;102023.25;5016772;28;45283;-64
2023/05/18 04:32:37;;;;;;;;;11.00;9.50;;;;;13.53;44.79;102016.25;5016889;28;45414;-64
2023/05/18 04:35:06;;;;;;;;;10.25;10.00;;;;;13.59;45.19;102032.06;5016630;28;45525;-64
2023/05/18 04:37:39;;;;;;;;;12.25;9.50;;;;;13.57;45.15;102030.31;5015716;28;45492;-64
2023/05/18 04:40:06;;;;;;;;;13.25;11.00;;;;;13.54;44.72;102025.06;5016883;28;45804;-65
2023/05/18 04:42:33;;;;;;;;;9.50;8.25;;;;;13.53;45.03;102029.44;4995508;28;45363;-64
2023/05/18 04:44:59;;;;;;;;;14.25;10.75;;;;;13.54;45.07;102032.97;5009911;28;47185;-65
2023/05/18 04:47:24;;;;;;;;;11.25;10.00;;;;;13.51;45.08;102031.25;5016556;28;45303;-65
2023/05/18 04:49:52;;;;;;;;;14.50;13.25;;;;;13.48;45.02;102026.84;5010860;28;45455;-65
2023/05/18 04:52:19;;;;;;;;;9.00;8.75;;;;;13.50;44.89;102034.75;5016656;28;45283;-64
2023/05/18 04:54:45;;;;;;;;;14.75;13.00;;;;;13.49;44.99;102038.28;4999337;28;47421;-64
2023/05/18 04:57:11;;;;;;;;;14.75;13.00;;;;;13.49;44.98;102048.84;5005210;28;45456;-65
2023/05/18 04:59:37;;;;;;;;;13.00;9.50;;;;;13.46;45.26;102041.81;5015456;28;45346;-65
2023/05/18 05:02:03;;;;;;;;;12.50;11.25;;;;;13.47;45.28;102046.22;5016539;28;45554;-64
2023/05/18 05:04:28;;;;;;;;;13.25;10.75;;;;;13.47;44.95;102040.94;5009266;28;46078;-65
2023/05/18 05:06:53;;;;;;;;;16.25;13.00;;;;;13.48;45.17;102044.44;5016297;28;45396;-65
2023/05/18 05:09:19;;;;;;;;;11.50;9.50;;;;;13.48;45.38;102036.53;5016230;28;46091;-64
2023/05/18 05:11:44;;;;;;;;;15.25;13.75;;;;;13.44;45.10;102037.44;5016056;28;45709;-64
2023/05/18 05:14:10;;;;;;;;;12.00;10.50;;;;;13.48;45.33;102037.41;5007563;28;47419;-64
2023/05/18 05:16:35;;;;;;;;;11.50;10.25;;;;;13.49;45.16;102044.44;5016563;28;45915;-65
2023/05/18 05:19:01;;;;;;;;;13.00;13.00;;;;;13.49;45.50;102049.72;5016138;28;45343;-64
2023/05/18 05:21:27;;;;;;;;;15.25;12.00;;;;;13.51;45.13;102041.81;5014585;28;45424;-65
2023/05/18 05:23:53;;;;;;;;;15.00;13.75;;;;;13.47;45.37;102043.56;5015553;28;45442;-65
2023/05/18 05:26:19;;;;;;;;;16.25;13.75;;;;;13.52;45.54;102053.22;5016059;28;45521;-65
2023/05/18 05:28:44;;;;;;;;;13.25;10.00;;;;;13.50;45.36;102050.59;5019421;28;45521;-65
2023/05/18 05:31:09;;;;;;;;;13.50;13.25;;;;;13.51;45.38;102055.00;5016782;28;45445;-64
2023/05/18 05:33:35;;;;;;;;;10.00;9.00;;;;;13.51;45.37;102056.75;5018801;28;45571;-64
2023/05/18 05:36:00;;;;;;;;;14.00;12.00;;;;;13.53;45.42;102050.56;5019276;28;45442;-64
2023/05/18 05:38:26;;;;;;;;;11.75;10.25;;;;;13.49;45.36;102049.72;5019593;28;45554;-65
2023/05/18 05:40:51;;;;;;;;;13.00;11.00;;;;;13.52;45.51;102059.41;5017415;28;53611;-64
2023/05/18 05:43:16;;;;;;;;;13.00;11.75;;;;;13.55;45.67;102062.00;5019063;28;46184;-65
2023/05/18 05:45:42;;;;;;;;;14.00;14.00;;;;;13.53;45.27;102055.84;5006054;28;45445;-64
2023/05/18 05:48:08;;;;;;;;;11.00;10.00;;;;;13.57;45.57;102064.63;5019102;28;45419;-64
2023/05/18 05:50:34;;;;;;;;;14.00;11.50;;;;;13.56;45.50;102069.06;5019553;28;45316;-64
2023/05/18 05:52:59;;;;;;;;;14.00;12.50;;;;;13.55;45.53;102067.28;5018067;28;46169;-64
2023/05/18 05:55:25;;;;;;;;;12.25;11.50;;;;;13.58;45.29;102063.75;5018876;28;45276;-64
2023/05/18 05:57:50;;;;;;;;;15.50;13.75;;;;;13.62;45.34;102074.31;5015947;28;46552;-64
2023/05/18 06:00:16;;;;;;;;;16.50;15.50;;;;;13.64;45.48;102069.88;5018912;28;45570;-64
2023/05/18 06:02:41;;;;;;;;;14.75;12.00;;;;;13.65;45.62;102063.72;5017805;28;45435;-64
2023/05/18 06:05:07;;;;;;;;;15.50;12.50;;;;;13.65;45.29;102061.06;5007232;28;45393;-64
2023/05/18 06:07:33;;;;;;;;;17.50;11.75;;;;;13.68;45.83;102062.81;5017685;28;46523;-64
2023/05/18 06:09:58;;;;;;;;;14.75;13.00;;;;;13.68;45.43;102061.94;5019418;28;45559;-64
2023/05/18 06:12:24;;;;;;;;;14.50;12.00;;;;;13.72;45.77;102068.97;5020996;28;45468;-64
2023/05/18 06:14:53;;;;;;;;;13.00;13.00;;;;;13.73;45.61;102074.22;5021007;28;45406;-64
2023/05/18 06:17:18;;;;;;;;;14.00;12.00;;;;;13.71;45.37;102067.19;5021766;28;45376;-69
2023/05/18 06:19:43;;;;;;;;;26.75;16.75;;;;;13.75;45.82;102071.59;5021170;28;45415;-64
2023/05/18 06:22:09;;;;;;;;;17.00;12.00;;;;;13.78;45.44;102075.06;5021217;28;48696;-66
2023/05/18 06:24:35;;;;;;;;;11.00;10.75;;;;;13.81;45.44;102075.06;5021256;28;45411;-60
2023/05/18 06:27:00;;;;;;;;;18.00;14.50;;;;;13.80;45.75;102061.88;5021471;28;45745;-63
2023/05/18 06:29:25;;;;;;;;;15.75;12.00;;;;;13.86;45.82;102066.22;5021237;28;45171;-63
2023/05/18 06:31:51;;;;;;;;;11.00;9.00;;;;;13.87;45.95;102058.28;5021324;28;45257;-64
2023/05/18 06:34:16;;;;;;;;;12.00;10.50;;;;;13.89;46.10;102061.81;5019853;28;45522;-64
2023/05/18 06:36:42;;;;;;;;;15.25;11.50;;;;;13.92;45.97;102068.81;5020287;28;45234;-64
2023/05/18 06:39:07;;;;;;;;;13.50;12.50;;;;;13.93;46.06;102065.31;5021100;28;45660;-64
2023/05/18 06:41:33;;;;;;;;;14.00;12.50;;;;;13.96;45.71;102073.19;5019738;28;45984;-64
2023/05/18 06:43:59;;;;;;;;;10.25;8.75;;;;;13.97;45.75;102075.84;5019733;28;45527;-66
2023/05/18 06:46:27;;;;;;;;;17.25;14.00;;;;;14.01;45.87;102076.69;5021309;28;45249;-63
2023/05/18 06:48:53;;;;;;;;;15.50;11.00;;;;;14.04;45.88;102074.03;5020691;28;45277;-63
2023/05/18 06:51:19;;;;;;;;;13.50;11.75;;;;;14.04;45.61;102071.38;5004512;28;47035;-63
2023/05/18 06:53:45;;;;;;;;;16.00;13.25;;;;;14.09;45.85;102072.22;5018757;28;46613;-62
2023/05/18 06:56:11;;;;;;;;;16.50;12.75;;;;;14.12;45.92;102066.94;5018964;28;45612;-63
2023/05/18 06:58:40;;;;;;;;;14.50;12.75;;;;;14.14;45.99;102072.19;5002826;28;46043;-63
2023/05/18 07:01:06;;;;;;;;;15.75;12.50;;;;;14.19;45.90;102066.84;5017418;28;45467;-62
2023/05/18 07:03:31;;;;;;;;;17.25;13.25;;;;;14.24;45.82;102070.38;5010922;28;45344;-63
2023/05/18 07:05:57;;;;;;;;;15.75;13.00;;;;;14.28;45.82;102067.66;5017739;28;45440;-63
2023/05/18 07:08:23;;;;;;;;;16.25;13.50;;;;;14.29;45.75;102061.50;5017737;28;45475;-63
2023/05/18 07:10:49;;;;;;;;;23.75;22.00;;;;;14.36;45.68;102064.09;5017364;28;45509;-63
2023/05/18 07:13:14;;;;;;;;;11.00;7.50;;;;;14.40;46.22;102071.09;5017520;28;45401;-63
2023/05/18 07:15:40;;;;;;;;;21.25;13.50;;;;;14.46;45.97;102066.63;5018110;28;45162;-63
2023/05/18 07:18:05;;;;;;;;;17.25;14.00;;;;;14.48;45.79;102066.63;5016938;28;45351;-64
2023/05/18 07:20:31;;;;;;;;;15.75;14.50;;;;;14.57;45.82;102078.88;5022534;28;45297;-63
2023/05/18 07:22:56;;;;;;;;;17.00;14.00;;;;;14.60;46.00;102074.44;5017099;28;45531;-63
2023/05/18 07:25:22;;;;;;;;;12.00;12.00;;;;;14.64;45.82;102070.00;5018477;28;45785;-63
2023/05/18 07:27:50;;;;;;;;;19.25;15.75;;;;;14.72;45.85;102070.81;5016864;28;46339;-63
2023/05/18 07:30:16;;;;;;;;;13.75;11.75;;;;;14.72;46.01;102064.66;5016605;28;45690;-63
2023/05/18 07:32:44;;;;;;;;;14.00;13.25;;;;;14.81;46.33;102071.63;5018615;28;45710;-63
2023/05/18 07:35:09;;;;;;;;;12.50;9.25;;;;;14.86;46.11;102070.66;5019700;28;45417;-63
2023/05/18 07:37:35;;;;;;;;;12.50;12.25;;;;;14.87;45.96;102066.25;5018647;28;45313;-63
2023/05/18 07:40:01;;;;;;;;;14.00;12.75;;;;;14.93;45.71;102067.06;5018398;28;45907;-63
2023/05/18 07:42:26;;;;;;;;;14.50;14.50;;;;;14.99;45.86;102065.25;5018392;28;45449;-63
2023/05/18 07:44:52;;;;;;;;;14.75;13.00;;;;;15.04;45.75;102063.41;5018797;28;45482;-63
2023/05/18 07:47:20;;;;;;;;;18.75;15.50;;;;;15.07;45.83;102058.09;5019642;28;45237;-63
2023/05/18 07:49:45;;;;;;;;;17.75;12.00;;;;;15.15;45.97;102063.28;5019638;28;45399;-63
2023/05/18 07:52:10;;;;;;;;;13.75;12.00;;;;;15.16;45.62;102057.09;5018362;28;45380;-64
2023/05/18 07:54:35;;;;;;;;;17.00;10.75;;;;;15.21;45.54;102058.78;5019607;28;45379;-64
2023/05/18 07:57:03;;;;;;;;;17.75;13.50;;;;;15.27;45.69;102068.44;5019471;28;49840;-63
2023/05/18 07:59:28;;;;;;;;;13.75;11.50;;;;;15.31;46.39;102066.59;5020186;28;46091;-66
2023/05/18 08:01:53;;;;;;;;;17.75;11.75;;;;;15.32;45.77;102055.13;5019722;28;45434;-65
2023/05/18 08:04:19;;;;;;;;;17.50;13.50;;;;;15.35;46.03;102060.38;5019518;28;45380;-68
2023/05/18 08:06:44;;;;;;;;;13.50;11.75;;;;;15.39;46.09;102060.31;5018446;28;45442;-68
2023/05/18 08:09:09;;;;;;;;;13.00;12.00;;;;;15.41;45.71;102055.88;5018109;28;46144;-68
2023/05/18 08:11:35;;;;;;;;;14.25;12.75;;;;;15.48;45.71;102061.09;5018986;28;45371;-68
2023/05/18 08:14:00;;;;;;;;;14.25;10.50;;;;;15.50;46.03;102054.88;5017268;28;45502;-68
2023/05/18 08:16:25;;;;;;;;;16.00;10.75;;;;;15.54;45.90;102059.22;5019446;28;45388;-68
2023/05/18 08:18:51;;;;;;;;;15.75;13.50;;;;;15.59;45.70;102045.91;5018713;28;46191;-68
2023/05/18 08:21:16;;;;;;;;;11.75;9.75;;;;;15.65;45.80;102052.91;5019020;28;45166;-68
2023/05/18 08:23:41;;;;;;;;;15.25;13.25;;;;;15.67;45.69;102044.06;5019532;28;45340;-68
2023/05/18 08:26:07;;;;;;;;;16.25;12.00;;;;;15.74;46.03;102048.34;5018968;28;45380;-68
2023/05/18 08:28:33;;;;;;;;;12.75;11.25;;;;;15.77;45.96;102042.13;5017823;28;46216;-68
2023/05/18 08:30:58;;;;;;;;;14.50;14.50;;;;;15.83;45.83;102047.34;5019035;28;45249;-68
2023/05/18 08:33:25;;;;;;;;;14.25;10.75;;;;;15.85;46.05;102040.25;5019069;28;45369;-68
2023/05/18 08:35:50;;;;;;;;;12.25;11.50;;;;;15.91;46.04;102039.28;5017696;28;45451;-68
2023/05/18 08:38:16;;;;;;;;;9.25;9.25;;;;;15.96;45.93;102040.09;5019057;28;45419;-68
2023/05/18 08:40:49;;;;;;;;;13.50;11.25;;;;;16.06;45.59;102048.75;5017683;28;45330;-68
2023/05/18 08:43:21;;;;;;;;;12.50;10.75;;;;;16.11;45.68;102038.09;5018059;28;45519;-68
2023/05/18 08:46:05;;;;;;;;;10.00;7.00;;;;;16.16;45.91;102033.59;5017668;28;45271;-68
2023/05/18 08:48:31;;;;;;;;;15.50;11.25;;;;;16.21;46.01;102024.66;5013099;28;46327;-68
2023/05/18 08:50:57;;;;;;;;;11.00;11.00;;;;;16.27;45.67;102025.44;5017764;28;45270;-68
2023/05/18 08:53:24;;;;;;;;;10.50;10.50;;;;;16.33;45.65;102030.66;5018590;28;45376;-68
2023/05/18 08:55:53;;;;;;;;;17.25;15.50;;;;;16.41;45.56;102031.38;5019082;28;45392;-68
2023/05/18 08:58:21;;;;;;;;;12.50;11.75;;;;;16.45;45.47;102025.09;5017606;28;48222;-68
2023/05/18 09:00:52;;;;;;;;;12.00;10.75;;;;;16.49;45.66;102025.91;5019518;28;45413;-67
2023/05/18 09:03:19;;;;;;;;;28.50;28.50;;;;;16.53;45.39;102028.50;5022396;28;45411;-68
2023/05/18 09:05:45;;;;;;;;;15.00;14.50;;;;;16.54;45.61;102016.09;5022015;28;45330;-68
2023/05/18 09:08:11;;;;;;;;;15.50;13.00;;;;;16.64;45.51;102017.69;5020998;28;47181;-68
2023/05/18 09:10:38;;;;;;;;;12.25;10.50;;;;;16.72;45.07;102020.19;5020605;28;45371;-68
2023/05/18 09:13:04;;;;;;;;;12.00;10.00;;;;;16.77;45.44;102018.31;5022400;28;45422;-68
2023/05/18 09:15:30;;;;;;;;;11.25;10.25;;;;;16.81;44.83;102021.78;5021898;28;45400;-68
2023/05/18 09:17:55;;;;;;;;;12.25;10.50;;;;;16.88;45.50;102018.97;5020629;28;46008;-68
2023/05/18 09:20:20;;;;;;;;;11.50;8.50;;;;;16.95;45.17;102021.53;5021819;28;45412;-68
2023/05/18 09:22:50;;;;;;;;;13.25;9.75;;;;;16.98;45.14;102026.78;5022406;28;45459;-68
2023/05/18 09:25:17;;;;;;;;;15.00;12.50;;;;;17.04;45.17;102014.25;5018790;28;45421;-68
2023/05/18 09:27:42;;;;;;;;;14.00;11.75;;;;;17.11;45.04;102020.31;5022120;28;45404;-68
2023/05/18 09:30:10;;;;;;;;;13.75;10.50;;;;;17.19;44.89;102022.78;5021788;28;45356;-68
2023/05/18 09:32:36;;;;;;;;;11.50;10.00;;;;;17.25;45.00;102027.97;5020782;28;45427;-68
2023/05/18 09:35:06;;;;;;;;;14.00;8.75;;;;;17.36;44.74;102025.09;5019929;28;45370;-68
2023/05/18 09:37:32;;;;;;;;;8.50;7.00;;;;;17.42;44.79;102027.63;5021937;28;45368;-68
2023/05/18 09:39:58;;;;;;;;;10.50;9.00;;;;;17.50;45.25;102027.44;5019954;28;45682;-67
2023/05/18 09:42:34;;;;;;;;;12.25;9.25;;;;;17.54;44.77;102026.44;5020517;28;45291;-68
2023/05/18 09:44:59;;;;;;;;;10.00;9.25;;;;;17.56;44.85;102011.34;5020605;28;45288;-67
2023/05/18 09:47:26;;;;;;;;;9.50;8.25;;;;;17.68;44.64;102023.47;5021608;28;45535;-68
2023/05/18 09:49:51;;;;;;;;;9.50;7.75;;;;;17.70;44.85;102016.34;5021607;28;45457;-69
2023/05/18 09:52:17;;;;;;;;;10.75;8.50;;;;;17.80;44.51;102022.31;5019859;28;45376;-68
2023/05/18 09:54:43;;;;;;;;;10.50;8.50;;;;;17.86;44.64;102014.16;5020103;28;45514;-68
2023/05/18 09:57:08;;;;;;;;;8.75;8.00;;;;;17.96;44.68;102014.84;5020370;28;47218;-67
2023/05/18 09:59:35;;;;;;;;;12.50;9.75;;;;;18.05;44.41;102019.97;5019870;28;46279;-67
2023/05/18 10:02:04;;;;;;;;;6.75;6.75;;;;;18.14;44.26;102003.75;5021815;28;45313;-67
2023/05/18 10:04:41;;;;;;;;;7.25;7.25;;;;;18.25;44.53;102013.22;5021423;28;45459;-67
2023/05/18 10:07:14;;;;;;;;;8.50;8.50;;;;;18.42;44.52;102012.78;5019945;28;47187;-68
2023/05/18 10:09:41;;;;;;;;;7.00;6.00;;;;;18.56;44.39;102010.63;5021465;28;45328;-67
2023/05/18 10:12:11;;;;;;;;;8.25;6.00;;;;;18.76;44.56;102006.53;5019986;28;45376;-67
2023/05/18 10:14:36;;;;;;;;;7.50;7.00;;;;;18.98;44.65;102009.47;5021385;28;45490;-67
2023/05/18 10:17:03;;;;;;;;;6.50;6.50;;;;;19.21;44.77;102014.13;5021132;28;45307;-68
2023/05/18 10:19:33;;;;;;;;;6.00;4.00;;;;;19.50;44.52;102007.00;5021375;28;45267;-68
2023/05/18 10:22:01;;;;;;;;;9.25;7.25;;;;;19.85;44.61;102009.47;5021074;28;45415;-67
2023/05/18 10:24:28;;;;;;;;;11.25;9.50;;;;;20.16;44.76;101998.63;5021442;28;45332;-67
2023/05/18 10:27:00;;;;;;;;;9.75;7.25;;;;;20.47;44.99;102002.91;5020642;28;46384;-67
2023/05/18 10:29:26;;;;;;;;;8.75;8.25;;;;;20.82;45.10;101998.09;5019990;28;45266;-68
2023/05/18 10:31:54;;;;;;;;;9.00;9.00;;;;;21.18;44.77;102002.09;5006723;28;45781;-68
2023/05/18 10:34:23;;;;;;;;;8.25;7.25;;;;;21.52;44.90;101992.72;5018025;28;45456;-67
2023/05/18 10:36:48;;;;;;;;;7.75;7.50;;;;;21.85;45.06;101995.00;5017607;28;45445;-67
2023/05/18 10:39:15;;;;;;;;;8.50;8.25;;;;;22.21;45.18;101989.88;5018234;28;45413;-67
2023/05/18 10:41:42;;;;;;;;;13.75;9.00;;;;;22.55;44.40;101990.19;5018425;28;45236;-66
2023/05/18 10:44:09;;;;;;;;;7.25;6.00;;;;;22.90;44.66;101995.75;5018319;28;45596;-67
2023/05/18 10:46:35;;;;;;;;;8.00;6.75;;;;;23.30;44.74;101991.22;5018022;28;46673;-67
2023/05/18 10:49:04;;;;;;;;;9.75;7.50;;;;;23.69;45.04;101989.34;5001825;28;45900;-67
2023/05/18 10:51:30;;;;;;;;;7.25;7.00;;;;;24.13;44.53;101988.06;5015891;28;45635;-67
2023/05/18 10:54:10;;;;;;;;;10.25;9.25;;;;;24.56;44.93;101983.09;5016472;28;45453;-67
2023/05/18 10:56:36;;;;;;;;;8.75;6.75;;;;;25.06;44.94;101989.34;5016617;28;47426;-68
2023/05/18 10:59:03;;;;;;;;;7.25;7.25;;;;;25.49;44.91;101988.75;5016781;28;45576;-68
2023/05/18 11:01:30;;;;;;;;;6.75;6.25;;;;;25.97;44.46;101996.72;5016484;28;45640;-70
2023/05/18 11:03:55;;;;;;;;;12.75;8.75;;;;;26.38;44.37;101984.44;5016626;28;45611;-67
2023/05/18 11:06:23;;;;;;;;;10.25;9.00;;;;;26.85;44.64;101986.00;5018052;28;45372;-64
2023/05/18 11:08:49;;;;;;;;;10.25;9.00;;;;;27.32;44.78;101991.09;5020572;28;45404;-65
2023/05/18 11:11:16;;;;;;;;;12.25;10.00;;;;;27.73;44.41;101991.09;5019967;28;45460;-66
2023/05/18 11:13:47;;;;;;;;;14.75;10.75;;;;;28.17;44.54;101988.16;5019421;28;45324;-66
2023/05/18 11:16:14;;;;;;;;;10.00;7.75;;;;;28.60;44.26;101992.38;5020414;28;45446;-66